Time;durP1;ratioP1;P1;durP2;ratioP2;P2;SDS_P1;SDS_P2;PMS_P1;PMS_P2;Temp;Humidity;BMP_temperature;BMP_pressure;BME280_temperature;BME280_humidity;BME280_pressure;Samples;Min_cycle;Max_cycle;Signal;HPM_P1;HPM_P2
2022/06/02 00:01:33;;;;;;;6.78;2.22;;;;;;;;;;1656917;86;21109;-89
2022/06/02 00:04:20;;;;;;;8.00;2.80;;;;;;;;;;1657159;85;21615;-90
2022/06/02 00:07:01;;;;;;;7.15;2.65;;;;;;;;;;1657391;86;21055;-89
2022/06/02 00:10:03;;;;;;;8.40;2.30;;;;;;;;;;1655867;86;21859;-90
2022/06/02 00:12:35;;;;;;;7.55;2.40;;;;;;;;;;1656912;86;21078;-90
2022/06/02 00:15:23;;;;;;;8.73;2.00;;;;;;;;;;1659874;84;21101;-90
2022/06/02 00:17:55;;;;;;;13.00;3.33;;;;;;;;;;1693545;82;21623;-89
2022/06/02 00:20:27;;;;;;;9.23;2.90;;;;;;;;;;1694121;84;21589;-89
2022/06/02 00:23:13;;;;;;;7.22;2.45;;;;;;;;;;1694007;84;21082;-90
2022/06/02 00:25:48;;;;;;;7.60;2.40;;;;;;;;;;1693955;84;21476;-89
2022/06/02 00:28:32;;;;;;;4.47;2.25;;;;;;;;;;1704309;83;21524;-89
2022/06/02 00:31:16;;;;;;;8.75;2.52;;;;;;;;;;1719349;83;21488;-89
2022/06/02 00:33:55;;;;;;;8.70;2.75;;;;;;;;;;1717019;83;21043;-87
2022/06/02 00:36:41;;;;;;;3.72;1.92;;;;;;;;;;1718830;82;21843;-90
2022/06/02 00:39:08;;;;;;;9.18;2.85;;;;;;;;;;1715964;83;21144;-89
2022/06/02 00:41:54;;;;;;;6.97;2.95;;;;;;;;;;1718786;83;20992;-89
2022/06/02 00:44:23;;;;;;;8.48;2.55;;;;;;;;;;1719319;83;21540;-90
2022/06/02 00:47:02;;;;;;;9.60;2.60;;;;;;;;;;1715376;83;21050;-89
2022/06/02 00:49:50;;;;;;;10.93;2.50;;;;;;;;;;1718823;83;21047;-88
2022/06/02 00:52:22;;;;;;;10.05;2.62;;;;;;;;;;1719053;83;21067;-89
2022/06/02 00:58:16;;;;;;;8.20;2.77;;;;;;;;;;1719333;83;21031;-89
2022/06/02 01:00:58;;;;;;;6.92;2.72;;;;;;;;;;1693801;84;20943;-90
2022/06/02 01:03:26;;;;;;;11.18;2.75;;;;;;;;;;1690370;84;22080;-90
2022/06/02 01:05:58;;;;;;;10.32;2.87;;;;;;;;;;1694027;84;20946;-90
2022/06/02 01:08:58;;;;;;;4.03;2.63;;;;;;;;;;1693788;84;21007;-90
2022/06/02 01:11:43;;;;;;;10.38;3.45;;;;;;;;;;1690183;84;21011;-89
2022/06/02 01:14:29;;;;;;;8.83;2.85;;;;;;;;;;1693794;84;21538;-89
2022/06/02 01:17:16;;;;;;;7.92;3.15;;;;;;;;;;1694293;84;21105;-91
2022/06/02 01:19:54;;;;;;;10.25;3.92;;;;;;;;;;1694188;84;21512;-89
2022/06/02 01:22:29;;;;;;;9.40;3.20;;;;;;;;;;1693955;84;21065;-89
2022/06/02 01:25:01;;;;;;;9.68;3.67;;;;;;;;;;1694134;84;21037;-88
2022/06/02 01:27:43;;;;;;;10.63;3.50;;;;;;;;;;1694033;84;21003;-89
2022/06/02 01:30:18;;;;;;;11.20;3.72;;;;;;;;;;1664812;85;21160;-90
2022/06/02 01:32:56;;;;;;;12.07;3.25;;;;;;;;;;1657523;86;21678;-90
2022/06/02 01:35:46;;;;;;;10.85;3.77;;;;;;;;;;1657605;86;21640;-89
2022/06/02 01:38:30;;;;;;;13.60;4.28;;;;;;;;;;1649711;86;21105;-90
2022/06/02 01:41:00;;;;;;;11.53;4.33;;;;;;;;;;1623655;88;21049;-88
2022/06/02 01:43:32;;;;;;;14.87;4.30;;;;;;;;;;1621527;86;21340;-89
2022/06/02 01:46:10;;;;;;;14.93;4.83;;;;;;;;;;1618557;87;21065;-90
2022/06/02 01:48:57;;;;;;;12.68;4.15;;;;;;;;;;1577608;90;21558;-88
2022/06/02 01:51:27;;;;;;;9.88;4.50;;;;;;;;;;1579265;90;21590;-90
2022/06/02 01:54:02;;;;;;;11.60;4.00;;;;;;;;;;1552578;92;21158;-92
2022/06/02 01:57:00;;;;;;;9.00;4.70;;;;;;;;;;1552218;92;21131;-87
2022/06/02 01:59:55;;;;;;;9.13;4.20;;;;;;;;;;1555006;92;21062;-90
2022/06/02 02:02:41;;;;;;;21.73;4.12;;;;;;;;;;1555308;92;21192;-89
2022/06/02 02:05:29;;;;;;;11.22;4.22;;;;;;;;;;1555068;92;21051;-90
2022/06/02 02:08:31;;;;;;;11.18;4.42;;;;;;;;;;1549603;92;21040;-90
2022/06/02 02:11:25;;;;;;;9.13;3.67;;;;;;;;;;1514050;92;21138;-89
2022/06/02 02:14:21;;;;;;;7.33;3.70;;;;;;;;;;1548023;92;21562;-91
2022/06/02 02:16:56;;;;;;;8.68;4.08;;;;;;;;;;1499678;95;21165;-89
2022/06/02 02:19:48;;;;;;;11.85;4.50;;;;;;;;;;1499065;94;21234;-90
2022/06/02 02:22:23;;;;;;;9.35;4.30;;;;;;;;;;1499606;95;21129;-89
2022/06/02 02:24:58;;;;;;;10.28;4.35;;;;;;;;;;1498919;93;21642;-90
2022/06/02 02:27:27;;;;;;;9.28;4.05;;;;;;;;;;1527237;94;21623;-90
2022/06/02 02:29:56;;;;;;;12.53;4.53;;;;;;;;;;1527889;93;21127;-90
2022/06/02 02:32:43;;;;;;;11.50;4.22;;;;;;;;;;1567600;91;21770;-90
2022/06/02 02:35:14;;;;;;;10.53;3.83;;;;;;;;;;1580813;89;21098;-90
2022/06/02 02:37:55;;;;;;;17.73;4.53;;;;;;;;;;1524234;94;21131;-90
2022/06/02 02:40:36;;;;;;;14.28;4.28;;;;;;;;;;1524209;94;20944;-90
2022/06/02 02:43:21;;;;;;;21.30;4.28;;;;;;;;;;1524215;94;21119;-90
2022/06/02 02:46:05;;;;;;;14.43;4.87;;;;;;;;;;1506997;95;21072;-89
2022/06/02 02:48:50;;;;;;;10.05;4.10;;;;;;;;;;1507025;95;21088;-90
2022/06/02 02:51:51;;;;;;;13.25;4.30;;;;;;;;;;1507063;95;21287;-90
2022/06/02 02:54:21;;;;;;;11.73;3.85;;;;;;;;;;1507095;93;21096;-90
2022/06/02 02:57:04;;;;;;;12.95;4.05;;;;;;;;;;1506789;95;21094;-91
2022/06/02 02:59:45;;;;;;;9.55;3.45;;;;;;;;;;1506978;95;21068;-90
2022/06/02 03:02:24;;;;;;;11.18;3.85;;;;;;;;;;1507040;95;21077;-90
2022/06/02 03:05:13;;;;;;;12.60;4.00;;;;;;;;;;1506965;93;21147;-90
2022/06/02 03:07:39;;;;;;;11.38;3.83;;;;;;;;;;1531037;93;21183;-91
2022/06/02 03:10:09;;;;;;;14.45;3.95;;;;;;;;;;1531004;93;21214;-90
2022/06/02 03:13:00;;;;;;;15.32;4.30;;;;;;;;;;1531200;93;22433;-91
2022/06/02 03:15:41;;;;;;;20.60;4.80;;;;;;;;;;1531196;93;21095;-90
2022/06/02 03:18:10;;;;;;;14.90;4.53;;;;;;;;;;1531121;93;21182;-91
2022/06/02 03:20:52;;;;;;;17.32;4.85;;;;;;;;;;1531227;93;21053;-91
2022/06/02 03:23:24;;;;;;;16.82;5.22;;;;;;;;;;1531221;93;21042;-90
2022/06/02 03:25:56;;;;;;;12.53;4.35;;;;;;;;;;1531239;92;20978;-91
2022/06/02 03:28:59;;;;;;;28.45;5.40;;;;;;;;;;1531810;93;21108;-90
2022/06/02 03:31:34;;;;;;;25.93;6.20;;;;;;;;;;1527684;93;21701;-91
2022/06/02 03:34:18;;;;;;;20.72;6.17;;;;;;;;;;1550274;89;21058;-90
2022/06/02 03:37:11;;;;;;;26.00;6.65;;;;;;;;;;1561324;91;21172;-91
2022/06/02 03:39:45;;;;;;;;;;;;;;;;;;1562352;90;21070;-90
2022/06/02 03:42:34;;;;;;;19.57;5.12;;;;;;;;;;1580606;87;20169;-90
2022/06/02 03:45:06;;;;;;;16.50;5.22;;;;;;;;;;1619547;88;22128;-90
2022/06/02 03:47:52;;;;;;;18.93;4.43;;;;;;;;;;1616919;88;21087;-90
2022/06/02 03:50:31;;;;;;;12.33;4.25;;;;;;;;;;1616402;88;21072;-91
2022/06/02 03:53:12;;;;;;;11.33;3.70;;;;;;;;;;1616220;88;21569;-91
2022/06/02 03:56:08;;;;;;;8.58;3.50;;;;;;;;;;1616518;88;21032;-90
2022/06/02 03:58:59;;;;;;;12.05;3.30;;;;;;;;;;1616431;88;21224;-90
2022/06/02 04:01:28;;;;;;;8.53;2.95;;;;;;;;;;1619459;88;21045;-90
2022/06/02 04:04:03;;;;;;;9.28;3.67;;;;;;;;;;1619534;87;21072;-91
2022/06/02 04:06:53;;;;;;;6.72;2.90;;;;;;;;;;1617128;88;21057;-93
2022/06/02 04:09:35;;;;;;;10.98;3.10;;;;;;;;;;1614570;88;21048;-91
2022/06/02 04:15:16;;;;;;;10.30;3.42;;;;;;;;;;1674682;84;21078;-90
2022/06/02 04:17:48;;;;;;;19.07;4.47;;;;;;;;;;1675049;85;21594;-91
2022/06/02 04:20:35;;;;;;;19.00;4.45;;;;;;;;;;1626014;88;21526;-91
2022/06/02 04:23:11;;;;;;;12.80;4.05;;;;;;;;;;1625237;88;21033;-91
2022/06/02 04:26:00;;;;;;;10.98;3.92;;;;;;;;;;1640282;85;21922;-91
2022/06/02 04:28:38;;;;;;;10.08;3.37;;;;;;;;;;1647408;87;21066;-89
2022/06/02 04:31:19;;;;;;;7.65;3.10;;;;;;;;;;1646244;85;21004;-91
2022/06/02 04:33:57;;;;;;;14.83;3.27;;;;;;;;;;1647389;87;21095;-91
2022/06/02 04:36:49;;;;;;;11.22;3.33;;;;;;;;;;1645187;85;21563;-92
2022/06/02 04:39:27;;;;;;;9.60;2.62;;;;;;;;;;1644307;87;21529;-91
2022/06/02 04:42:05;;;;;;;16.35;4.08;;;;;;;;;;1644566;87;21071;-92
2022/06/02 04:44:53;;;;;;;13.13;3.27;;;;;;;;;;1645822;87;21478;-92
2022/06/02 04:47:53;;;;;;;12.50;3.02;;;;;;;;;;1646333;87;21031;-91
2022/06/02 04:50:28;;;;;;;28.45;3.60;;;;;;;;;;1647300;87;21654;-91
2022/06/02 04:53:03;;;;;;;6.97;2.67;;;;;;;;;;1617501;88;21548;-89
2022/06/02 04:55:51;;;;;;;17.15;2.62;;;;;;;;;;1615429;88;21493;-89
2022/06/02 04:58:23;;;;;;;14.05;3.00;;;;;;;;;;1655832;86;21097;-91
2022/06/02 05:01:10;;;;;;;10.98;2.67;;;;;;;;;;1664855;84;21559;-92
2022/06/02 05:03:48;;;;;;;9.43;2.83;;;;;;;;;;1664768;86;21051;-91
2022/06/02 05:06:18;;;;;;;9.63;2.67;;;;;;;;;;1654674;86;21160;-93
2022/06/02 05:08:47;;;;;;;11.95;2.72;;;;;;;;;;1656587;86;21079;-91
2022/06/02 05:11:22;;;;;;;9.38;2.75;;;;;;;;;;1650153;86;21126;-91
2022/06/02 05:14:01;;;;;;;6.65;2.90;;;;;;;;;;1656725;86;21103;-91
2022/06/02 05:16:42;;;;;;;8.75;2.75;;;;;;;;;;1653628;86;21594;-91
2022/06/02 05:19:38;;;;;;;6.65;3.00;;;;;;;;;;1656934;86;21110;-90
2022/06/02 05:22:14;;;;;;;12.68;3.17;;;;;;;;;;1656720;86;21059;-92
2022/06/02 05:25:12;;;;;;;14.63;3.15;;;;;;;;;;1653644;86;21024;-91
2022/06/02 05:27:57;;;;;;;11.68;2.67;;;;;;;;;;1656389;86;21126;-93
2022/06/02 05:30:46;;;;;;;12.53;3.47;;;;;;;;;;1593618;89;21558;-93
2022/06/02 05:33:51;;;;;;;8.80;3.12;;;;;;;;;;1579766;90;21923;-93
2022/06/02 05:36:37;;;;;;;8.10;3.10;;;;;;;;;;1579575;90;21152;-92
2022/06/02 05:39:24;;;;;;;13.00;3.30;;;;;;;;;;1579695;89;21193;-90
2022/06/02 05:42:05;;;;;;;8.83;3.45;;;;;;;;;;1579815;90;21590;-92
2022/06/02 05:44:43;;;;;;;8.88;3.12;;;;;;;;;;1579945;90;21706;-92
2022/06/02 05:47:34;;;;;;;10.00;3.42;;;;;;;;;;1579796;90;21096;-93
2022/06/02 05:50:06;;;;;;;13.85;3.70;;;;;;;;;;1579915;90;21546;-94
2022/06/02 05:52:41;;;;;;;10.55;3.20;;;;;;;;;;1580049;90;21185;-89
2022/06/02 05:55:13;;;;;;;13.15;3.87;;;;;;;;;;1579842;90;21061;-91
2022/06/02 05:57:46;;;;;;;13.53;5.72;;;;;;;;;;1580039;90;21073;-93
2022/06/02 06:00:27;;;;;;;10.15;4.20;;;;;;;;;;1579895;90;21297;-93
2022/06/02 06:02:54;;;;;;;;;;;;;;;;;;1589317;90;21170;-93
2022/06/02 06:05:38;;;;;;;10.88;4.00;;;;;;;;;;1589515;90;20208;-91
2022/06/02 06:10:57;;;;;;;15.43;3.92;;;;;;;;;;1651312;86;21646;-93
2022/06/02 06:13:47;;;;;;;14.73;3.95;;;;;;;;;;1660191;85;21585;-94
2022/06/02 06:16:19;;;;;;;7.87;3.63;;;;;;;;;;1657079;86;21016;-94
2022/06/02 06:18:52;;;;;;;17.75;4.00;;;;;;;;;;1660360;86;21581;-93
2022/06/02 06:21:50;;;;;;;7.35;3.40;;;;;;;;;;1657076;85;21166;-94
2022/06/02 06:24:53;;;;;;;9.23;3.22;;;;;;;;;;1660020;85;21067;-94
2022/06/02 06:27:23;;;;;;;11.93;4.00;;;;;;;;;;1660149;85;21176;-93
2022/06/02 06:30:07;;;;;;;10.53;3.80;;;;;;;;;;1653593;86;21581;-93
2022/06/02 06:32:39;;;;;;;12.35;4.12;;;;;;;;;;1658839;86;21044;-93
2022/06/02 06:35:14;;;;;;;9.23;3.83;;;;;;;;;;1660049;86;21086;-92
2022/06/02 06:37:50;;;;;;;11.90;3.83;;;;;;;;;;1657325;86;21127;-92
2022/06/02 06:40:36;;;;;;;12.20;4.00;;;;;;;;;;1660315;86;21244;-92
2022/06/02 06:43:25;;;;;;;7.90;4.50;;;;;;;;;;1659897;86;21022;-92
2022/06/02 06:46:11;;;;;;;9.55;4.42;;;;;;;;;;1659990;86;21101;-92
2022/06/02 06:48:40;;;;;;;15.32;4.10;;;;;;;;;;1659880;86;21028;-93
2022/06/02 06:51:31;;;;;;;10.95;4.12;;;;;;;;;;1568545;90;21565;-94
2022/06/02 06:54:20;;;;;;;15.95;4.58;;;;;;;;;;1565773;91;21376;-92
2022/06/02 06:57:01;;;;;;;11.60;4.97;;;;;;;;;;1568481;90;21061;-92
2022/06/02 06:59:50;;;;;;;12.03;4.87;;;;;;;;;;1567432;91;21479;-94
2022/06/02 07:02:23;;;;;;;13.43;4.70;;;;;;;;;;1568875;91;21006;-94
2022/06/02 07:05:11;;;;;;;14.40;4.80;;;;;;;;;;1508772;95;21061;-90
2022/06/02 07:07:57;;;;;;;12.03;4.40;;;;;;;;;;1519415;93;21562;-92
2022/06/02 07:10:49;;;;;;;11.57;4.65;;;;;;;;;;1530929;93;21121;-91
2022/06/02 07:13:22;;;;;;;14.23;4.62;;;;;;;;;;1531092;93;21603;-94
2022/06/02 07:16:16;;;;;;;13.80;4.28;;;;;;;;;;1528603;93;21069;-94
2022/06/02 07:19:03;;;;;;;9.70;3.80;;;;;;;;;;1485768;96;21076;-90
2022/06/02 07:21:42;;;;;;;15.03;4.03;;;;;;;;;;1485842;95;21139;-90
2022/06/02 07:24:23;;;;;;;12.73;4.25;;;;;;;;;;1485895;96;21551;-90
2022/06/02 07:27:12;;;;;;;27.75;4.00;;;;;;;;;;1485600;96;21818;-94
2022/06/02 07:29:57;;;;;;;8.55;3.65;;;;;;;;;;1553462;92;21049;-94
2022/06/02 07:32:50;;;;;;;10.65;3.40;;;;;;;;;;1560957;91;21069;-94
2022/06/02 07:35:38;;;;;;;11.18;3.75;;;;;;;;;;1518160;94;21170;-92
2022/06/02 07:38:32;;;;;;;9.38;3.17;;;;;;;;;;1518541;94;21006;-95
2022/06/02 07:41:07;;;;;;;15.43;3.75;;;;;;;;;;1518232;94;21085;-93
2022/06/02 07:43:53;;;;;;;7.30;2.95;;;;;;;;;;1565850;91;21224;-90
2022/06/02 07:46:38;;;;;;;8.83;3.67;;;;;;;;;;1566001;91;21117;-90
2022/06/02 07:49:36;;;;;;;13.85;3.52;;;;;;;;;;1562721;91;21655;-92
2022/06/02 07:52:24;;;;;;;7.67;3.37;;;;;;;;;;1565835;91;21030;-92
2022/06/02 07:55:13;;;;;;;10.58;3.90;;;;;;;;;;1565983;91;21118;-92
2022/06/02 07:57:54;;;;;;;12.78;3.50;;;;;;;;;;1565915;91;21139;-94
2022/06/02 08:00:26;;;;;;;7.22;3.52;;;;;;;;;;1566022;91;21050;-92
2022/06/02 08:03:11;;;;;;;13.15;3.75;;;;;;;;;;1521086;94;21632;-90
2022/06/02 08:05:51;;;;;;;10.85;3.20;;;;;;;;;;1539381;90;22218;-89
2022/06/02 08:08:29;;;;;;;11.40;3.25;;;;;;;;;;1519304;94;21069;-88
2022/06/02 08:11:07;;;;;;;13.40;3.45;;;;;;;;;;1519588;94;21590;-87
2022/06/02 08:13:39;;;;;;;11.73;2.95;;;;;;;;;;1563654;91;20989;-93
2022/06/02 08:16:14;;;;;;;6.67;2.83;;;;;;;;;;1564047;91;22026;-91
2022/06/02 08:18:52;;;;;;;11.18;3.33;;;;;;;;;;1563566;91;21006;-91
2022/06/02 08:21:25;;;;;;;10.50;2.80;;;;;;;;;;1563637;91;21080;-90
2022/06/02 08:24:00;;;;;;;12.35;3.10;;;;;;;;;;1563340;91;21199;-91
2022/06/02 08:26:46;;;;;;;10.50;2.98;;;;;;;;;;1563495;91;21064;-89
2022/06/02 08:29:24;;;;;;;30.17;3.85;;;;;;;;;;1563328;90;22137;-89
2022/06/02 08:32:05;;;;;;;12.30;2.87;;;;;;;;;;1553810;90;21089;-89
2022/06/02 08:34:50;;;;;;;11.20;3.02;;;;;;;;;;1546576;92;21487;-89
2022/06/02 08:37:28;;;;;;;10.60;2.77;;;;;;;;;;1522042;94;21070;-89
2022/06/02 08:40:15;;;;;;;12.70;3.37;;;;;;;;;;1513677;94;21691;-87
2022/06/02 08:42:47;;;;;;;12.40;2.70;;;;;;;;;;1510916;94;21204;-88
2022/06/02 08:45:37;;;;;;;10.58;2.58;;;;;;;;;;1489744;95;21571;-95
2022/06/02 08:48:32;;;;;;;13.88;3.58;;;;;;;;;;1449731;99;21144;-89
2022/06/02 08:51:10;;;;;;;9.80;2.60;;;;;;;;;;1450270;98;21717;-95
2022/06/02 08:53:52;;;;;;;13.00;2.50;;;;;;;;;;1402214;102;21171;-89
2022/06/02 08:56:38;;;;;;;6.42;2.40;;;;;;;;;;1401792;102;22196;-88
2022/06/02 08:59:31;;;;;;;13.25;2.80;;;;;;;;;;1378110;103;21161;-88
2022/06/02 09:02:24;;;;;;;12.05;2.37;;;;;;;;;;1362136;105;21066;-87
2022/06/02 09:05:13;;;;;;;11.03;2.70;;;;;;;;;;1383521;103;21306;-91
2022/06/02 09:07:54;;;;;;;8.73;2.20;;;;;;;;;;1383880;103;21148;-92
2022/06/02 09:10:55;;;;;;;10.40;2.77;;;;;;;;;;1364447;105;27628;-92
2022/06/02 09:13:48;;;;;;;14.55;2.62;;;;;;;;;;1407290;99;20999;-89
2022/06/02 09:16:33;;;;;;;11.00;3.05;;;;;;;;;;1407027;102;21031;-90
2022/06/02 09:19:09;;;;;;;11.30;3.02;;;;;;;;;;1427851;99;21052;-92
2022/06/02 09:21:53;;;;;;;12.68;2.35;;;;;;;;;;1406832;102;21613;-88
2022/06/02 09:24:46;;;;;;;7.35;2.17;;;;;;;;;;1406848;102;21676;-91
2022/06/02 09:27:31;;;;;;;9.25;2.60;;;;;;;;;;1406948;100;21078;-91
2022/06/02 09:30:09;;;;;;;8.38;2.27;;;;;;;;;;1409614;100;21664;-90
2022/06/02 09:33:33;;;;;;;6.78;2.42;;;;;;;;;;1348479;104;21656;-88
2022/06/02 09:35:37;;;;;;;10.20;2.50;;;;;;;;;;1405588;99;21083;-90
2022/06/02 09:38:18;;;;;;;9.53;2.77;;;;;;;;;;1446498;97;21875;-89
2022/06/02 09:41:06;;;;;;;12.90;2.75;;;;;;;;;;1406740;102;21215;-91
2022/06/02 09:43:38;;;;;;;11.80;2.30;;;;;;;;;;1430419;97;21157;-91
2022/06/02 09:46:17;;;;;;;;;;;;;;;;;;1468395;97;21106;-88
2022/06/02 09:48:55;;;;;;;9.35;2.12;;;;;;;;;;1470791;97;20244;-90
2022/06/02 09:51:47;;;;;;;6.37;2.52;;;;;;;;;;1466235;97;21385;-93
2022/06/02 09:54:31;;;;;;;;;;;;;;;;;;1473066;97;21153;-93
2022/06/02 09:57:03;;;;;;;11.70;2.35;;;;;;;;;;1470816;96;20221;-92
2022/06/02 09:59:38;;;;;;;6.47;2.50;;;;;;;;;;1434032;100;21153;-89
2022/06/02 10:02:13;;;;;;;14.20;2.40;;;;;;;;;;1444757;99;21551;-90
2022/06/02 10:04:43;;;;;;;15.50;2.70;;;;;;;;;;1445392;99;21110;-89
2022/06/02 10:07:30;;;;;;;12.50;2.85;;;;;;;;;;1445013;99;21102;-92
2022/06/02 10:10:24;;;;;;;11.28;2.80;;;;;;;;;;1494014;93;21665;-90
2022/06/02 10:13:18;;;;;;;8.03;2.22;;;;;;;;;;1538916;93;21031;-93
2022/06/02 10:16:06;;;;;;;10.50;2.22;;;;;;;;;;1494135;96;21133;-91
2022/06/02 10:18:55;;;;;;;11.30;2.80;;;;;;;;;;1488853;96;21803;-88
2022/06/02 10:21:49;;;;;;;8.18;2.42;;;;;;;;;;1489432;95;21067;-89
2022/06/02 10:24:23;;;;;;;11.03;2.98;;;;;;;;;;1444496;98;21059;-88
2022/06/02 10:27:21;;;;;;;8.60;2.58;;;;;;;;;;1444082;99;21072;-91
2022/06/02 10:29:56;;;;;;;6.90;2.08;;;;;;;;;;1444320;98;21684;-90
2022/06/02 10:32:27;;;;;;;11.20;2.60;;;;;;;;;;1444269;97;21680;-88
2022/06/02 10:35:18;;;;;;;6.97;2.17;;;;;;;;;;1444373;98;21524;-92
2022/06/02 10:38:07;;;;;;;10.48;2.40;;;;;;;;;;1514850;93;21046;-92
2022/06/02 10:40:52;;;;;;;14.38;2.30;;;;;;;;;;1534691;92;21123;-89
2022/06/02 10:43:21;;;;;;;7.72;2.55;;;;;;;;;;1533086;93;21001;-88
2022/06/02 10:46:02;;;;;;;8.15;2.20;;;;;;;;;;1534720;93;21961;-89
2022/06/02 10:48:58;;;;;;;6.97;2.52;;;;;;;;;;1534884;93;21043;-92
2022/06/02 10:52:02;;;;;;;6.97;2.52;;;;;;;;;;1544265;89;21160;-90
2022/06/02 10:54:57;;;;;;;8.48;2.05;;;;;;;;;;1583064;90;21031;-89
2022/06/02 10:57:53;;;;;;;7.75;2.37;;;;;;;;;;1582948;90;21712;-89
2022/06/02 11:00:43;;;;;;;7.40;2.20;;;;;;;;;;1582897;90;21635;-89
2022/06/02 11:03:18;;;;;;;8.83;2.17;;;;;;;;;;1582912;90;21044;-90
2022/06/02 11:06:00;;;;;;;9.23;2.27;;;;;;;;;;1583007;90;21089;-91
2022/06/02 11:08:49;;;;;;;10.80;2.15;;;;;;;;;;1583194;90;21034;-90
2022/06/02 11:11:38;;;;;;;9.65;2.20;;;;;;;;;;1579822;90;21087;-90
2022/06/02 11:14:10;;;;;;;13.22;2.42;;;;;;;;;;1640948;86;21296;-91
2022/06/02 11:16:54;;;;;;;;;;;;;;;;;;1663701;86;21075;-89
2022/06/02 11:19:26;;;;;;;10.88;2.55;;;;;;;;;;1660970;85;20146;-89
2022/06/02 11:21:56;;;;;;;7.83;2.40;;;;;;;;;;1658436;86;21556;-90
2022/06/02 11:24:46;;;;;;;9.70;2.30;;;;;;;;;;1663190;83;21115;-89
2022/06/02 11:27:39;;;;;;;11.97;2.83;;;;;;;;;;1706851;83;21340;-90
2022/06/02 11:30:33;;;;;;;4.95;1.98;;;;;;;;;;1711155;83;21085;-90
2022/06/02 11:33:14;;;;;;;10.55;2.30;;;;;;;;;;1659744;86;21607;-91
2022/06/02 11:36:16;;;;;;;7.87;2.40;;;;;;;;;;1661460;86;21062;-88
2022/06/02 11:39:06;;;;;;;7.58;2.35;;;;;;;;;;1664611;86;21575;-91
2022/06/02 11:41:38;;;;;;;14.63;2.77;;;;;;;;;;1661366;86;21871;-88
2022/06/02 11:44:09;;;;;;;16.50;2.40;;;;;;;;;;1665119;86;21043;-89
2022/06/02 11:46:57;;;;;;;10.38;2.37;;;;;;;;;;1664832;86;21190;-88
2022/06/02 11:49:48;;;;;;;11.00;2.65;;;;;;;;;;1664646;86;21109;-87
2022/06/02 11:52:39;;;;;;;9.95;2.30;;;;;;;;;;1664572;86;21066;-92
2022/06/02 11:55:26;;;;;;;8.38;2.30;;;;;;;;;;1664790;86;21880;-89
2022/06/02 11:58:04;;;;;;;7.72;2.22;;;;;;;;;;1664681;85;21034;-87
2022/06/02 12:00:34;;;;;;;10.75;2.40;;;;;;;;;;1664858;86;21031;-87
2022/06/02 12:03:06;;;;;;;5.70;1.92;;;;;;;;;;1666108;83;21626;-91
2022/06/02 12:06:03;;;;;;;10.32;2.08;;;;;;;;;;1723371;83;20943;-91
2022/06/02 12:08:51;;;;;;;7.00;2.20;;;;;;;;;;1727333;83;21114;-89
2022/06/02 12:11:37;;;;;;;11.50;2.30;;;;;;;;;;1726810;83;21521;-88
2022/06/02 12:14:26;;;;;;;8.65;2.05;;;;;;;;;;1726588;83;21019;-90
2022/06/02 12:17:21;;;;;;;17.17;2.45;;;;;;;;;;1726636;83;37752;-89
2022/06/02 12:20:10;;;;;;;12.55;2.35;;;;;;;;;;1724657;83;20931;-89
2022/06/02 12:22:49;;;;;;;8.48;2.22;;;;;;;;;;1726837;83;21042;-89
2022/06/02 12:25:22;;;;;;;6.17;2.30;;;;;;;;;;1726731;83;20996;-88
2022/06/02 12:28:11;;;;;;;13.98;1.98;;;;;;;;;;1726686;83;21039;-89
2022/06/02 12:30:40;;;;;;;16.02;2.47;;;;;;;;;;1726750;83;21038;-90
2022/06/02 12:33:32;;;;;;;8.23;2.02;;;;;;;;;;1721695;83;21039;-90
2022/06/02 12:36:29;;;;;;;16.97;2.62;;;;;;;;;;1719485;83;21172;-87
2022/06/02 12:39:07;;;;;;;13.20;2.37;;;;;;;;;;1719544;83;20995;-91
2022/06/02 12:41:53;;;;;;;13.53;2.60;;;;;;;;;;1715545;83;21067;-92
2022/06/02 12:44:34;;;;;;;10.90;2.02;;;;;;;;;;1719558;83;20983;-92
2022/06/02 12:47:29;;;;;;;7.05;1.98;;;;;;;;;;1719453;83;21496;-92
2022/06/02 12:49:59;;;;;;;6.65;2.17;;;;;;;;;;1719337;83;21152;-92
2022/06/02 12:53:02;;;;;;;10.58;2.58;;;;;;;;;;1719432;82;21413;-87
2022/06/02 12:56:05;;;;;;;6.55;2.50;;;;;;;;;;1719159;83;21058;-90
2022/06/02 12:58:46;;;;;;;10.63;2.50;;;;;;;;;;1719574;83;21582;-91
2022/06/02 13:01:35;;;;;;;6.10;1.98;;;;;;;;;;1719729;82;20993;-92
2022/06/02 13:04:13;;;;;;;10.58;2.45;;;;;;;;;;1719209;83;21168;-91
2022/06/02 13:07:01;;;;;;;7.33;2.02;;;;;;;;;;1719332;83;21071;-91
2022/06/02 13:09:46;;;;;;;12.13;2.60;;;;;;;;;;1719644;83;20944;-91
2022/06/02 13:12:35;;;;;;;15.43;2.50;;;;;;;;;;1718062;83;21187;-91
2022/06/02 13:15:21;;;;;;;11.90;2.12;;;;;;;;;;1719554;83;21011;-92
2022/06/02 13:17:59;;;;;;;9.60;2.00;;;;;;;;;;1719618;83;21075;-89
2022/06/02 13:20:43;;;;;;;10.45;2.60;;;;;;;;;;1718132;83;21356;-92
2022/06/02 13:23:23;;;;;;;11.70;1.98;;;;;;;;;;1715605;83;21078;-92
2022/06/02 13:26:09;;;;;;;9.18;2.37;;;;;;;;;;1692473;83;21012;-90
2022/06/02 13:28:50;;;;;;;11.28;2.30;;;;;;;;;;1718575;83;21030;-92
2022/06/02 13:31:36;;;;;;;7.08;2.00;;;;;;;;;;1719182;83;21133;-91
2022/06/02 13:34:28;;;;;;;10.63;2.20;;;;;;;;;;1719016;83;21031;-90
2022/06/02 13:37:13;;;;;;;8.60;2.22;;;;;;;;;;1719316;83;21012;-90
2022/06/02 13:40:12;;;;;;;9.68;2.40;;;;;;;;;;1719304;82;20969;-91
2022/06/02 13:43:10;;;;;;;8.23;2.70;;;;;;;;;;1715245;83;21047;-90
2022/06/02 13:46:14;;;;;;;9.50;2.27;;;;;;;;;;1719402;82;21149;-87
2022/06/02 13:49:05;;;;;;;13.20;2.60;;;;;;;;;;1719403;82;21027;-89
2022/06/02 13:51:50;;;;;;;13.53;3.05;;;;;;;;;;1719434;83;20952;-90
2022/06/02 13:57:31;;;;;;;8.33;2.42;;;;;;;;;;1719479;83;21011;-91
2022/06/02 14:00:18;;;;;;;11.53;2.53;;;;;;;;;;1673959;85;21120;-91
2022/06/02 14:02:53;;;;;;;8.40;2.10;;;;;;;;;;1673982;85;21115;-94
2022/06/02 14:05:45;;;;;;;11.50;2.90;;;;;;;;;;1674195;85;21008;-93
2022/06/02 14:08:34;;;;;;;12.80;2.60;;;;;;;;;;1674552;85;21609;-91
2022/06/02 14:11:19;;;;;;;9.93;2.58;;;;;;;;;;1673983;85;21739;-88
2022/06/02 14:14:15;;;;;;;11.38;2.33;;;;;;;;;;1627948;87;21199;-87
2022/06/02 14:17:13;;;;;;;8.83;2.60;;;;;;;;;;1627971;87;21048;-90
2022/06/02 14:19:45;;;;;;;26.37;3.30;;;;;;;;;;1627768;87;21031;-91
2022/06/02 14:22:31;;;;;;;6.85;1.90;;;;;;;;;;1628192;87;21611;-89
2022/06/02 14:25:20;;;;;;;7.28;2.33;;;;;;;;;;1628085;87;21083;-89
2022/06/02 14:28:22;;;;;;;18.17;2.70;;;;;;;;;;1627860;87;21051;-86
2022/06/02 14:30:54;;;;;;;17.23;2.27;;;;;;;;;;1628049;87;21087;-89
2022/06/02 14:33:34;;;;;;;10.28;1.80;;;;;;;;;;1632236;86;25119;-87
2022/06/02 14:36:18;;;;;;;14.60;2.77;;;;;;;;;;1641092;86;21086;-88
2022/06/02 14:38:56;;;;;;;10.40;2.47;;;;;;;;;;1657628;86;21016;-91
2022/06/02 14:41:35;;;;;;;19.70;2.45;;;;;;;;;;1660907;86;21063;-90
2022/06/02 14:44:10;;;;;;;10.78;2.20;;;;;;;;;;1661135;86;21481;-88
2022/06/02 14:47:03;;;;;;;13.45;2.20;;;;;;;;;;1660935;86;21134;-89
2022/06/02 14:49:54;;;;;;;12.40;2.60;;;;;;;;;;1661161;84;21023;-89
2022/06/02 14:52:42;;;;;;;7.75;2.27;;;;;;;;;;1661180;86;21563;-89
2022/06/02 14:55:30;;;;;;;19.67;2.80;;;;;;;;;;1660855;86;21796;-88
2022/06/02 14:58:17;;;;;;;10.35;2.50;;;;;;;;;;1661168;86;21508;-89
2022/06/02 15:00:55;;;;;;;13.93;2.20;;;;;;;;;;1660992;86;20963;-88
2022/06/02 15:03:50;;;;;;;12.93;2.22;;;;;;;;;;1661066;86;21058;-89
2022/06/02 15:06:25;;;;;;;9.20;2.20;;;;;;;;;;1660970;86;21523;-90
2022/06/02 15:09:27;;;;;;;11.93;2.37;;;;;;;;;;1661872;83;21086;-89
2022/06/02 15:12:14;;;;;;;10.13;2.00;;;;;;;;;;1694541;84;21584;-89
2022/06/02 15:15:00;;;;;;;17.57;2.58;;;;;;;;;;1694142;84;21018;-90
2022/06/02 15:18:01;;;;;;;11.35;2.17;;;;;;;;;;1694078;83;21019;-90
2022/06/02 15:20:39;;;;;;;17.87;2.52;;;;;;;;;;1694406;84;20999;-89
2022/06/02 15:23:15;;;;;;;5.62;2.20;;;;;;;;;;1694439;84;21068;-88
2022/06/02 15:26:05;;;;;;;9.45;2.22;;;;;;;;;;1690706;84;21032;-88
2022/06/02 15:28:52;;;;;;;14.73;2.40;;;;;;;;;;1694109;84;21019;-91
2022/06/02 15:31:19;;;;;;;15.35;2.58;;;;;;;;;;1694234;84;21039;-89
2022/06/02 15:34:11;;;;;;;13.00;2.27;;;;;;;;;;1694151;84;21094;-88
2022/06/02 15:36:58;;;;;;;12.28;2.05;;;;;;;;;;1694330;84;21042;-88
2022/06/02 15:39:44;;;;;;;11.83;2.77;;;;;;;;;;1698792;84;21021;-91
2022/06/02 15:42:44;;;;;;;15.58;2.85;;;;;;;;;;1698823;84;21074;-88
2022/06/02 15:45:28;;;;;;;13.83;2.52;;;;;;;;;;1689290;84;21015;-88
2022/06/02 15:48:06;;;;;;;12.60;2.92;;;;;;;;;;1677298;85;21150;-87
2022/06/02 15:50:56;;;;;;;10.53;2.60;;;;;;;;;;1680399;85;21520;-90
2022/06/02 15:54:00;;;;;;;9.70;2.52;;;;;;;;;;1680520;85;21384;-87
2022/06/02 15:56:46;;;;;;;18.32;2.42;;;;;;;;;;1680338;85;21425;-90
2022/06/02 15:59:35;;;;;;;13.72;2.45;;;;;;;;;;1680202;85;21008;-88
2022/06/02 16:02:38;;;;;;;11.25;2.70;;;;;;;;;;1680341;85;21015;-88
2022/06/02 16:05:39;;;;;;;13.55;2.77;;;;;;;;;;1680496;85;21291;-89
2022/06/02 16:08:25;;;;;;;14.58;2.70;;;;;;;;;;1680460;85;20960;-88
2022/06/02 16:11:17;;;;;;;20.60;2.70;;;;;;;;;;1607079;89;20995;-89
2022/06/02 16:14:12;;;;;;;9.78;2.30;;;;;;;;;;1607237;89;21098;-89
2022/06/02 16:17:15;;;;;;;20.68;2.75;;;;;;;;;;1623580;87;21066;-87
2022/06/02 16:20:09;;;;;;;8.65;2.55;;;;;;;;;;1637521;87;21539;-88
2022/06/02 16:22:39;;;;;;;;;;;;;;;;;;1640218;87;21258;-91
2022/06/02 16:25:29;;;;;;;14.63;2.62;;;;;;;;;;1638119;87;20288;-88